Terminal Aerodrome Forecast
Issued by NWS

Home | Current Version | Previous Version | Text Only | Print | Product List | Glossary On
Versions: 1 2 3 4 5 6 7 8 9 10 11 12
000
FTUS43 KMQT 230531
TAFSAW
TAF
KSAW 230531Z 2306/2406 22008KT P6SM BKN050
     FM231400 26007KT P6SM SCT070
     FM240000 25003KT P6SM BKN070
     FM240500 20006KT P6SM BKN045=

USA.gov is the U.S. government's official web portal to all federal, state and local government web resources and services.